Time;durP1;ratioP1;P1;durP2;ratioP2;P2;SDS_P1;SDS_P2;PMS_P1;PMS_P2;Temp;Humidity;BMP_temperature;BMP_pressure;BME280_temperature;BME280_humidity;BME280_pressure;Samples;Min_cycle;Max_cycle;Signal;HPM_P1;HPM_P2
2021/03/19 00:02:20;;;;;;;5.07;1.83;;;;;;;7.64;46.95;101639.13;5055412;28;20613;-46
2021/03/19 00:04:47;;;;;;;5.30;1.95;;;;;;;7.51;47.18;101644.22;5054092;28;20252;-48
2021/03/19 00:07:16;;;;;;;3.70;1.30;;;;;;;7.53;47.58;101642.63;5055688;28;20284;-47
2021/03/19 00:09:43;;;;;;;4.10;1.65;;;;;;;7.50;47.41;101648.47;5054633;28;20316;-47
2021/03/19 00:12:10;;;;;;;5.38;2.00;;;;;;;7.48;47.87;101649.16;5055596;28;20563;-48
2021/03/19 00:14:36;;;;;;;8.85;2.17;;;;;;;7.53;47.95;101638.38;5053898;28;20329;-45
2021/03/19 00:17:03;;;;;;;4.22;1.95;;;;;;;7.46;47.76;101649.03;5055344;28;20193;-46
2021/03/19 00:19:30;;;;;;;5.97;1.98;;;;;;;7.60;47.66;101642.28;5053853;28;20677;-47
2021/03/19 00:21:56;;;;;;;4.07;1.85;;;;;;;7.87;47.21;101650.06;5055336;28;20245;-48
2021/03/19 00:24:24;;;;;;;3.72;1.70;;;;;;;7.81;46.95;101645.38;5053784;28;20320;-46
2021/03/19 00:26:50;;;;;;;6.05;1.38;;;;;;;7.75;47.41;101651.81;5055291;28;20284;-47
2021/03/19 00:29:18;;;;;;;4.40;2.00;;;;;;;7.62;47.57;101652.63;5057292;28;20295;-49
2021/03/19 00:31:44;;;;;;;3.65;1.70;;;;;;;7.76;47.72;101658.72;5063935;28;20204;-46
2021/03/19 00:34:11;;;;;;;3.80;1.80;;;;;;;7.52;48.17;101669.09;5063077;28;20232;-46
2021/03/19 00:36:38;;;;;;;4.13;2.00;;;;;;;7.32;48.81;101670.31;5064204;28;20205;-49
2021/03/19 00:39:05;;;;;;;2.72;1.50;;;;;;;7.30;48.54;101677.88;5068477;28;20609;-50
2021/03/19 00:41:32;;;;;;;3.63;1.60;;;;;;;7.16;49.22;101675.25;5074810;28;20228;-47
2021/03/19 00:44:00;;;;;;;3.88;2.10;;;;;;;7.70;47.86;101661.78;5073605;28;20224;-47
2021/03/19 00:46:27;;;;;;;4.88;1.95;;;;;;;7.58;48.03;101666.94;5040139;28;20256;-49
2021/03/19 00:48:54;;;;;;;6.38;1.90;;;;;;;7.72;47.98;101659.28;5069305;28;21098;-50
2021/03/19 00:51:20;;;;;;;4.72;1.60;;;;;;;7.13;49.20;101662.19;5054958;28;20202;-48
2021/03/19 00:53:47;;;;;;;7.18;2.20;;;;;;;7.68;47.90;101659.09;5054880;28;20198;-47
2021/03/19 00:56:14;;;;;;;3.00;1.50;;;;;;;7.54;48.17;101664.97;5064777;28;20201;-50
2021/03/19 00:58:41;;;;;;;3.00;1.40;;;;;;;7.42;48.81;101667.56;5065153;28;20233;-49
2021/03/19 01:01:07;;;;;;;5.00;2.22;;;;;;;7.54;48.67;101667.53;5064174;28;20635;-51
2021/03/19 01:03:34;;;;;;;5.55;1.80;;;;;;;7.67;48.30;101667.59;5064018;28;20312;-53
2021/03/19 01:06:01;;;;;;;5.57;1.85;;;;;;;7.50;48.92;101669.00;5063386;28;20225;-47
2021/03/19 01:08:28;;;;;;;3.30;1.77;;;;;;;7.80;47.63;101669.31;5065165;28;20212;-47
2021/03/19 01:10:56;;;;;;;5.15;1.98;;;;;;;7.29;48.79;101673.56;5073257;28;20258;-48
2021/03/19 01:13:23;;;;;;;4.90;1.92;;;;;;;7.42;48.60;101672.72;5074715;28;20193;-48
2021/03/19 01:15:51;;;;;;;3.83;1.98;;;;;;;6.89;49.89;101672.50;5073324;28;20236;-46
2021/03/19 01:18:20;;;;;;;6.13;1.85;;;;;;;7.35;49.30;101679.09;5074591;28;20232;-48
2021/03/19 01:20:48;;;;;;;6.40;1.88;;;;;;;7.34;49.01;101682.44;5071480;28;20235;-46
2021/03/19 01:23:15;;;;;;;6.18;2.05;;;;;;;7.52;48.67;101682.84;5074607;28;20524;-47
2021/03/19 01:25:42;;;;;;;3.00;1.38;;;;;;;7.35;48.78;101684.25;5073189;28;20263;-47
2021/03/19 01:28:09;;;;;;;5.47;2.08;;;;;;;7.30;48.87;101689.03;5074276;28;20300;-51
2021/03/19 01:30:37;;;;;;;5.80;2.15;;;;;;;7.32;49.00;101686.59;5057142;28;20243;-48
2021/03/19 01:33:06;;;;;;;6.25;2.30;;;;;;;7.50;48.51;101684.41;5055981;28;20572;-47
2021/03/19 01:35:36;;;;;;;3.95;1.70;;;;;;;7.64;48.53;101687.91;5066168;28;20232;-47
2021/03/19 01:38:03;;;;;;;7.00;2.00;;;;;;;7.33;49.28;101683.22;5069359;28;20523;-48
2021/03/19 01:40:33;;;;;;;3.83;1.80;;;;;;;7.42;48.54;101686.44;5073347;28;20306;-48
2021/03/19 01:43:00;;;;;;;6.80;2.33;;;;;;;7.13;49.26;101687.84;5078338;28;20221;-49
2021/03/19 01:46:06;;;;;;;4.43;1.73;;;;;;;7.10;49.17;101682.53;5077132;28;20224;-47
2021/03/19 01:49:10;;;;;;;17.23;6.20;;;;;;;7.04;51.46;101692.34;5076779;28;20612;-45
2021/03/19 01:52:14;;;;;;;29.20;10.85;;;;;;;6.77;50.52;101697.25;5056956;28;20584;-46
2021/03/19 01:55:18;;;;;;;6.07;2.55;;;;;;;6.81;50.73;101693.28;5056415;28;20249;-49
2021/03/19 01:58:22;;;;;;;8.07;3.80;;;;;;;6.62;51.12;101695.38;5055173;28;20201;-49
2021/03/19 02:01:26;;;;;;;11.00;3.55;;;;;;;6.91;50.14;101698.28;5057104;28;20656;-46
2021/03/19 02:04:32;;;;;;;10.27;4.97;;;;;;;6.76;50.66;101695.47;5056829;28;20294;-48
2021/03/19 02:07:36;;;;;;;4.88;2.10;;;;;;;6.55;50.53;101698.28;5056516;28;20217;-49
2021/03/19 02:10:40;;;;;;;7.07;2.40;;;;;;;6.50;50.88;101697.03;5055749;28;20323;-46
2021/03/19 02:13:44;;;;;;;4.93;2.15;;;;;;;6.26;51.28;101702.13;5056704;28;20339;-48
2021/03/19 02:16:48;;;;;;;8.70;2.72;;;;;;;6.94;49.51;101705.28;5075696;28;20234;-47
2021/03/19 02:19:52;;;;;;;5.72;2.20;;;;;;;6.63;50.32;101703.97;5075521;28;20236;-45
2021/03/19 02:22:56;;;;;;;6.45;2.78;;;;;;;6.35;50.91;101701.94;5076311;28;20277;-48
2021/03/19 02:26:00;;;;;;;4.40;2.10;;;;;;;6.33;50.89;101711.19;5075205;28;20236;-47
2021/03/19 02:29:06;;;;;;;5.75;2.10;;;;;;;6.11;51.40;101713.81;5061117;28;20223;-48
2021/03/19 02:32:00;;;;;;;6.75;2.70;;;;;;;6.25;50.88;101709.75;5043979;28;20693;-46
2021/03/19 02:34:30;;;;;;;5.32;2.58;;;;;;;6.28;50.81;101705.72;5045826;28;20706;-49
2021/03/19 02:36:57;;;;;;;5.32;2.53;;;;;;;6.20;51.14;101714.50;5063109;28;20603;-46
2021/03/19 02:39:24;;;;;;;8.23;2.85;;;;;;;6.14;51.47;101714.03;5076969;28;20545;-47
2021/03/19 02:41:51;;;;;;;4.72;2.40;;;;;;;6.35;50.87;101713.09;5077151;28;20602;-46
2021/03/19 02:44:18;;;;;;;11.38;3.20;;;;;;;6.20;51.23;101714.50;5076221;28;20239;-47
2021/03/19 02:46:44;;;;;;;6.63;2.80;;;;;;;6.46;50.90;101715.56;5077784;28;20231;-48
2021/03/19 02:49:12;;;;;;;14.25;3.60;;;;;;;6.21;51.13;101724.88;5076507;28;20232;-50
2021/03/19 02:51:38;;;;;;;8.40;2.72;;;;;;;6.19;51.12;101720.41;5077714;28;20213;-46
2021/03/19 02:54:05;;;;;;;4.30;2.60;;;;;;;6.39;50.73;101723.56;5076383;28;20267;-46
2021/03/19 02:56:32;;;;;;;10.13;3.10;;;;;;;6.35;50.82;101725.00;5077387;28;20200;-47
2021/03/19 02:58:59;;;;;;;7.05;3.40;;;;;;;6.04;51.64;101726.16;5076456;28;20228;-46
2021/03/19 03:01:26;;;;;;;5.85;3.20;;;;;;;6.12;51.78;101725.84;5077671;28;20285;-45
2021/03/19 03:03:54;;;;;;;6.10;3.20;;;;;;;5.73;52.37;101738.25;5076417;28;20247;-48
2021/03/19 03:06:21;;;;;;;8.50;3.30;;;;;;;5.64;52.55;101734.22;5076758;28;20205;-49
2021/03/19 03:08:48;;;;;;;8.77;3.40;;;;;;;6.05;52.08;101740.75;5076283;28;20635;-47
2021/03/19 03:11:14;;;;;;;5.32;3.03;;;;;;;5.91;52.04;101738.78;5077146;28;20203;-47
2021/03/19 03:13:41;;;;;;;9.10;3.50;;;;;;;5.73;52.51;101740.81;5076282;28;20204;-46
2021/03/19 03:16:08;;;;;;;6.65;2.97;;;;;;;5.85;52.62;101746.00;5076697;28;20260;-46
2021/03/19 03:18:34;;;;;;;5.22;3.00;;;;;;;5.71;52.92;101739.81;5076223;28;20307;-47
2021/03/19 03:21:01;;;;;;;6.07;3.60;;;;;;;6.15;51.96;101744.03;5077046;28;20232;-47
2021/03/19 03:23:29;;;;;;;10.48;3.72;;;;;;;6.27;51.86;101739.84;5076976;28;20223;-48
2021/03/19 03:25:56;;;;;;;10.80;3.63;;;;;;;5.91;52.37;101749.03;5075199;28;20654;-47
2021/03/19 03:28:23;;;;;;;5.60;3.10;;;;;;;5.65;53.44;101748.78;5076562;28;20645;-48
2021/03/19 03:30:53;;;;;;;8.85;3.47;;;;;;;5.78;53.87;101755.78;5075691;28;20255;-46
2021/03/19 03:33:20;;;;;;;15.95;4.10;;;;;;;5.75;53.37;101758.09;5076863;28;20201;-47
2021/03/19 03:35:47;;;;;;;6.80;3.67;;;;;;;5.77;53.24;101761.69;5075472;28;20236;-47
2021/03/19 03:38:20;;;;;;;8.85;3.58;;;;;;;5.85;53.42;101763.94;5076510;28;20217;-46
2021/03/19 03:40:51;;;;;;;7.07;3.63;;;;;;;5.80;53.24;101761.91;5075608;28;20237;-49
2021/03/19 03:43:18;;;;;;;6.93;4.28;;;;;;;6.08;52.24;101766.63;5076745;28;20604;-45
2021/03/19 03:45:45;;;;;;;9.20;3.83;;;;;;;5.84;53.00;101769.84;5075300;28;20324;-47
2021/03/19 03:48:13;;;;;;;15.70;4.43;;;;;;;5.85;53.20;101774.19;5076649;28;20231;-46
2021/03/19 03:50:40;;;;;;;11.93;3.72;;;;;;;5.79;53.42;101778.03;5075374;28;20244;-47
2021/03/19 03:53:08;;;;;;;8.90;4.40;;;;;;;5.80;53.22;101777.25;5075677;28;20196;-47
2021/03/19 03:55:35;;;;;;;9.25;4.50;;;;;;;5.75;53.68;101778.56;5074898;28;20279;-47
2021/03/19 03:58:03;;;;;;;8.85;4.47;;;;;;;5.71;53.72;101786.81;5076257;28;20272;-50
2021/03/19 04:00:30;;;;;;;10.13;3.90;;;;;;;5.84;53.43;101782.66;5075166;28;20327;-47
2021/03/19 04:02:59;;;;;;;8.98;4.50;;;;;;;5.64;53.81;101779.44;5076233;28;20220;-46
2021/03/19 04:05:28;;;;;;;9.18;4.90;;;;;;;6.00;53.14;101777.91;5075058;28;20238;-47
2021/03/19 04:07:54;;;;;;;9.32;4.70;;;;;;;5.92;53.42;101781.56;5076001;28;20225;-46
2021/03/19 04:10:22;;;;;;;9.50;4.68;;;;;;;5.85;53.65;101780.19;5072353;28;20543;-51
2021/03/19 04:12:49;;;;;;;12.38;5.55;;;;;;;5.95;53.46;101776.69;5076013;28;20220;-47
2021/03/19 04:15:18;;;;;;;12.73;4.82;;;;;;;5.72;54.15;101783.47;5074970;28;20622;-45
2021/03/19 04:17:46;;;;;;;9.43;4.50;;;;;;;5.73;54.76;101781.78;5075776;28;20241;-45
2021/03/19 04:20:15;;;;;;;10.57;4.97;;;;;;;5.87;54.53;101785.44;5075299;28;20583;-47
2021/03/19 04:22:42;;;;;;;11.55;4.95;;;;;;;5.85;54.52;101794.66;5075844;28;20216;-49
2021/03/19 04:25:09;;;;;;;11.70;5.47;;;;;;;5.78;54.95;101788.16;5074927;28;20323;-46
2021/03/19 04:27:40;;;;;;;10.98;5.20;;;;;;;5.91;54.84;101784.91;5075858;28;20247;-47
2021/03/19 04:30:07;;;;;;;11.07;5.13;;;;;;;5.81;55.24;101781.59;5074880;28;20236;-47
2021/03/19 04:32:35;;;;;;;10.52;5.47;;;;;;;6.03;54.68;101773.06;5072214;28;20211;-47
2021/03/19 04:35:03;;;;;;;12.05;5.63;;;;;;;6.02;54.58;101773.84;5074639;28;20349;-47
2021/03/19 04:37:31;;;;;;;11.52;6.00;;;;;;;6.38;53.68;101773.03;5075646;28;20641;-47
2021/03/19 04:39:59;;;;;;;11.10;5.28;;;;;;;6.28;54.21;101782.63;5075082;28;20238;-49
2021/03/19 04:42:26;;;;;;;11.20;5.38;;;;;;;6.80;52.66;101774.47;5075600;28;20220;-47
2021/03/19 04:44:53;;;;;;;13.13;5.20;;;;;;;6.46;53.47;101787.34;5074382;28;20239;-46
2021/03/19 04:47:20;;;;;;;11.25;5.63;;;;;;;6.64;53.32;101794.63;5075459;28;20201;-48
2021/03/19 04:49:47;;;;;;;10.98;5.50;;;;;;;6.15;54.59;101792.72;5074990;28;20313;-49
2021/03/19 04:52:14;;;;;;;11.75;5.55;;;;;;;5.86;55.32;101799.00;5075647;28;20510;-48
2021/03/19 04:54:41;;;;;;;10.82;4.93;;;;;;;6.30;54.38;101805.81;5074307;28;20646;-46
2021/03/19 04:57:07;;;;;;;16.33;6.45;;;;;;;5.92;55.60;101808.09;5075407;28;20291;-50
2021/03/19 04:59:34;;;;;;;13.18;6.00;;;;;;;5.89;55.78;101812.94;5074616;28;20240;-50
2021/03/19 05:02:01;;;;;;;10.07;5.28;;;;;;;6.15;55.46;101808.97;5075336;28;20212;-49
2021/03/19 05:04:28;;;;;;;14.93;6.10;;;;;;;6.49;53.96;101818.34;5075055;28;20235;-46
2021/03/19 05:07:01;;;;;;;13.15;5.82;;;;;;;6.84;53.23;101826.88;5082168;28;20200;-46
2021/03/19 05:09:28;;;;;;;11.45;6.45;;;;;;;6.86;52.96;101823.66;5081332;28;20232;-46
2021/03/19 05:11:56;;;;;;;11.43;6.10;;;;;;;7.01;52.36;101820.41;5082058;28;20534;-48
2021/03/19 05:14:22;;;;;;;12.88;6.50;;;;;;;7.12;52.28;101819.53;5080676;28;20303;-49
2021/03/19 05:16:50;;;;;;;13.05;6.50;;;;;;;6.64;53.29;101822.81;5081738;28;20196;-46
2021/03/19 05:19:18;;;;;;;12.90;6.20;;;;;;;6.41;53.90;101820.31;5081438;28;20236;-47
2021/03/19 05:21:45;;;;;;;11.30;6.78;;;;;;;6.72;53.77;101822.63;5082068;28;20308;-49
2021/03/19 05:24:13;;;;;;;16.40;6.80;;;;;;;6.48;53.99;101822.56;5080765;28;20329;-46
2021/03/19 05:26:40;;;;;;;13.93;6.95;;;;;;;6.40;54.40;101822.78;5081741;28;20204;-47
2021/03/19 05:29:07;;;;;;;16.30;6.47;;;;;;;6.29;54.40;101827.06;5080794;28;20238;-46
2021/03/19 05:31:34;;;;;;;15.13;7.13;;;;;;;6.51;54.32;101832.16;5081937;28;20304;-46
2021/03/19 05:34:03;;;;;;;15.85;7.25;;;;;;;6.59;54.48;101831.09;5080932;28;20235;-47
2021/03/19 05:36:31;;;;;;;15.52;7.25;;;;;;;6.75;53.61;101830.56;5081686;28;20294;-51
2021/03/19 05:38:58;;;;;;;14.18;7.05;;;;;;;6.19;55.01;101833.16;5080919;28;20236;-46
2021/03/19 05:41:28;;;;;;;14.65;7.70;;;;;;;6.55;54.01;101830.72;5081579;28;20263;-46
2021/03/19 05:43:59;;;;;;;13.15;7.20;;;;;;;6.22;54.54;101836.84;5081239;28;20311;-48
2021/03/19 05:46:30;;;;;;;18.65;7.25;;;;;;;6.18;55.19;101836.50;5081807;28;20232;-49
2021/03/19 05:49:00;;;;;;;13.95;6.57;;;;;;;6.23;55.12;101840.31;5081007;28;20251;-47
2021/03/19 05:51:37;;;;;;;15.57;7.35;;;;;;;6.10;55.61;101843.59;5081535;28;20673;-46
2021/03/19 05:54:23;;;;;;;18.40;7.60;;;;;;;6.14;55.41;101839.59;5080484;28;20696;-47
2021/03/19 05:57:01;;;;;;;14.32;7.65;;;;;;;6.12;55.63;101847.19;5081638;28;20333;-50
2021/03/19 05:59:28;;;;;;;14.32;6.50;;;;;;;6.03;55.96;101844.81;5080992;28;20316;-49
2021/03/19 06:01:55;;;;;;;14.25;7.50;;;;;;;6.05;55.60;101850.94;5078283;28;20537;-46
2021/03/19 06:04:25;;;;;;;16.05;7.65;;;;;;;6.02;55.85;101852.34;5080141;28;20585;-49
2021/03/19 06:06:54;;;;;;;15.75;7.20;;;;;;;6.38;54.97;101856.00;5081689;28;20524;-49
2021/03/19 06:09:24;;;;;;;20.48;7.10;;;;;;;6.03;55.70;101852.50;5080883;28;20319;-48
2021/03/19 06:11:54;;;;;;;18.23;7.82;;;;;;;6.65;54.78;101860.53;5081478;28;20201;-50
2021/03/19 06:14:21;;;;;;;16.13;7.35;;;;;;;6.49;54.92;101861.94;5080292;28;20240;-47
2021/03/19 06:16:48;;;;;;;14.77;7.57;;;;;;;6.18;55.66;101868.16;5078778;28;20201;-50
2021/03/19 06:19:28;;;;;;;15.50;7.57;;;;;;;6.20;55.59;101861.47;5077206;28;20317;-46
2021/03/19 06:22:05;;;;;;;14.10;7.22;;;;;;;6.40;55.11;101866.38;5078291;28;20200;-50
2021/03/19 06:24:34;;;;;;;12.52;7.75;;;;;;;6.43;55.09;101870.06;5076955;28;20240;-52
2021/03/19 06:27:17;;;;;;;15.35;7.95;;;;;;;6.24;55.66;101867.72;5078152;28;20291;-49
2021/03/19 06:29:46;;;;;;;17.15;8.45;;;;;;;6.58;55.01;101879.69;5076847;28;20315;-46
2021/03/19 06:32:18;;;;;;;17.27;7.15;;;;;;;6.58;54.92;101880.59;5077840;28;20675;-46
2021/03/19 06:35:07;;;;;;;15.07;7.53;;;;;;;6.79;54.59;101883.00;5060439;28;20241;-47
2021/03/19 06:37:36;;;;;;;13.82;7.22;;;;;;;7.24;53.84;101886.28;5049313;28;20205;-47
2021/03/19 06:40:26;;;;;;;18.73;7.65;;;;;;;6.67;55.02;101898.31;5057039;28;20252;-47
2021/03/19 06:42:53;;;;;;;18.35;7.30;;;;;;;6.68;55.21;101894.09;5057429;28;20279;-47
2021/03/19 06:45:22;;;;;;;13.45;8.15;;;;;;;7.17;54.14;101894.31;5056687;28;20241;-48
2021/03/19 06:47:51;;;;;;;13.57;6.80;;;;;;;6.67;54.92;101902.56;5057850;28;20201;-47
2021/03/19 06:50:35;;;;;;;20.10;8.35;;;;;;;6.41;56.05;101907.47;5056731;28;20241;-48
2021/03/19 06:53:18;;;;;;;14.88;8.18;;;;;;;6.84;55.28;101908.97;5056663;28;20198;-50
2021/03/19 06:55:47;;;;;;;15.45;7.45;;;;;;;6.78;54.64;101914.56;5056655;28;20324;-47
2021/03/19 06:58:15;;;;;;;18.02;7.93;;;;;;;7.19;54.24;101915.88;5057231;28;20260;-46
2021/03/19 07:00:44;;;;;;;15.00;7.57;;;;;;;7.20;54.35;101920.22;5056424;28;20237;-46
2021/03/19 07:03:30;;;;;;;16.95;8.13;;;;;;;7.27;54.07;101934.38;5057686;28;20252;-45
2021/03/19 07:06:16;;;;;;;14.02;7.32;;;;;;;7.50;53.46;101932.63;5056268;28;20501;-48
2021/03/19 07:08:50;;;;;;;22.05;8.38;;;;;;;7.34;54.12;101928.91;5047464;28;20229;-47
2021/03/19 07:11:38;;;;;;;17.30;8.60;;;;;;;7.48;53.62;101947.91;5057024;28;20212;-48
2021/03/19 07:14:21;;;;;;;12.73;7.63;;;;;;;7.25;54.32;101939.44;5056243;28;20240;-48
2021/03/19 07:16:55;;;;;;;13.55;7.13;;;;;;;6.94;54.81;101941.34;5057039;28;20292;-45
2021/03/19 07:19:24;;;;;;;14.60;7.40;;;;;;;7.38;54.81;101943.78;5056158;28;20233;-49
2021/03/19 07:22:10;;;;;;;14.85;7.28;;;;;;;7.60;53.63;101947.94;5056851;28;20244;-47
2021/03/19 07:25:10;;;;;;;13.02;6.70;;;;;;;8.21;52.41;101939.38;5055811;28;20594;-47
2021/03/19 07:28:27;;;;;;;15.88;6.90;;;;;;;8.06;52.67;101950.31;5042935;28;20288;-51
2021/03/19 07:31:16;;;;;;;21.13;7.28;;;;;;;7.81;54.03;101947.69;5013996;28;20618;-46
2021/03/19 07:34:05;;;;;;;15.75;7.25;;;;;;;7.64;54.13;101949.94;5014527;28;20203;-48
2021/03/19 07:36:37;;;;;;;15.57;7.35;;;;;;;8.05;53.39;101945.97;5051364;28;20202;-50
2021/03/19 07:39:29;;;;;;;15.88;7.00;;;;;;;8.46;52.61;101941.09;5056066;28;20232;-48
2021/03/19 07:42:07;;;;;;;16.13;7.07;;;;;;;8.17;53.51;101937.34;5056600;28;20212;-48
2021/03/19 07:44:40;;;;;;;13.95;6.85;;;;;;;8.55;52.73;101935.72;5055242;28;20240;-49
2021/03/19 07:47:46;;;;;;;17.13;7.63;;;;;;;8.71;52.31;101933.38;5056722;28;20206;-46
2021/03/19 07:50:36;;;;;;;12.40;6.60;;;;;;;9.17;52.19;101945.00;5055660;28;20244;-46
2021/03/19 07:53:18;;;;;;;17.33;7.22;;;;;;;9.41;51.92;101944.84;5065405;28;20354;-46
2021/03/19 07:56:08;;;;;;;13.68;6.25;;;;;;;9.10;52.24;101953.09;5051104;28;20283;-49
2021/03/19 07:58:47;;;;;;;13.70;6.25;;;;;;;9.75;51.41;101957.34;5055582;28;20319;-48
2021/03/19 08:01:22;;;;;;;13.30;6.57;;;;;;;9.29;52.02;101957.81;5072472;28;20200;-45
2021/03/19 08:03:56;;;;;;;11.10;5.20;;;;;;;9.57;51.42;101965.66;5055307;28;20483;-49
2021/03/19 08:06:31;;;;;;;13.13;5.30;;;;;;;9.97;50.66;101969.91;5056106;28;20459;-47
2021/03/19 08:09:02;;;;;;;17.93;5.73;;;;;;;10.28;49.88;101963.22;5055303;28;20554;-49
2021/03/19 08:11:32;;;;;;;10.60;5.90;;;;;;;9.69;50.57;101969.84;5055820;28;20474;-48
2021/03/19 08:14:26;;;;;;;10.80;5.20;;;;;;;9.54;51.39;101973.19;5058510;28;20440;-47
2021/03/19 08:16:58;;;;;;;14.53;5.73;;;;;;;9.66;50.49;101974.78;5075934;28;20465;-48
2021/03/19 08:19:29;;;;;;;9.17;4.80;;;;;;;10.16;49.72;101980.50;5074832;28;20475;-46
2021/03/19 08:22:03;;;;;;;19.07;6.13;;;;;;;9.39;51.07;101990.22;5075566;28;20465;-47
2021/03/19 08:24:36;;;;;;;18.57;6.43;;;;;;;9.97;50.11;101989.66;5074648;28;20475;-47
2021/03/19 08:27:11;;;;;;;19.23;5.33;;;;;;;10.45;49.34;101994.38;5075760;28;20459;-48
2021/03/19 08:29:42;;;;;;;10.80;5.37;;;;;;;9.81;50.55;102004.13;5074791;28;20477;-48
2021/03/19 08:32:17;;;;;;;12.53;4.70;;;;;;;9.55;51.03;102005.00;5075508;28;20839;-48
2021/03/19 08:34:51;;;;;;;13.23;4.80;;;;;;;9.32;50.69;102013.00;5064796;28;20474;-49
2021/03/19 08:37:26;;;;;;;13.30;5.40;;;;;;;9.91;49.30;102015.94;5055485;28;20854;-49
2021/03/19 08:39:53;;;;;;;9.00;4.73;;;;;;;10.45;48.37;102020.19;5065460;28;20786;-47
2021/03/19 08:42:24;;;;;;;9.23;4.47;;;;;;;10.61;47.94;102025.47;5074824;28;20558;-47
2021/03/19 08:44:51;;;;;;;7.00;3.57;;;;;;;9.50;49.83;102024.41;5074259;28;20445;-50
2021/03/19 08:47:24;;;;;;;14.43;6.40;;;;;;;10.72;47.23;102025.25;5075605;28;20535;-46
2021/03/19 08:49:54;;;;;;;11.33;4.00;;;;;;;10.26;47.60;102032.75;5074501;28;20479;-47
2021/03/19 08:52:32;;;;;;;12.00;5.17;;;;;;;10.56;47.71;102032.03;5075534;28;20454;-46
2021/03/19 08:55:20;;;;;;;8.63;3.37;;;;;;;10.40;48.39;102036.22;5074461;28;20528;-47
2021/03/19 08:57:49;;;;;;;9.23;3.57;;;;;;;9.54;48.68;102045.31;5075095;28;20462;-46
2021/03/19 09:00:47;;;;;;;9.53;3.43;;;;;;;9.58;48.73;102047.31;5074395;28;20481;-52
2021/03/19 09:03:46;;;;;;;9.80;3.63;;;;;;;10.43;47.02;102042.38;5055097;28;20493;-48
2021/03/19 09:06:15;;;;;;;10.07;3.97;;;;;;;10.24;47.15;102039.50;5034876;28;20465;-47
2021/03/19 09:09:40;;;;;;;6.27;3.17;;;;;;;10.43;46.74;102043.28;5035303;28;20550;-47
2021/03/19 09:12:15;;;;;;;5.30;2.50;;;;;;;10.51;46.51;102041.19;5046631;28;20460;-48
2021/03/19 09:14:46;;;;;;;5.73;2.50;;;;;;;10.57;45.57;102045.84;5053652;28;20574;-45
2021/03/19 09:18:02;;;;;;;5.80;2.70;;;;;;;10.66;45.54;102039.56;5055151;28;20466;-47
2021/03/19 09:20:33;;;;;;;4.97;2.33;;;;;;;10.90;45.36;102046.13;5053802;28;20457;-48
2021/03/19 09:23:20;;;;;;;4.83;2.10;;;;;;;10.91;44.77;102040.16;5055077;28;20462;-52
2021/03/19 09:25:55;;;;;;;7.17;2.73;;;;;;;10.87;44.75;102046.84;5053698;28;20456;-52
2021/03/19 09:28:59;;;;;;;6.10;2.33;;;;;;;10.89;43.91;102050.41;5054788;28;20474;-49
2021/03/19 09:31:39;;;;;;;4.90;2.40;;;;;;;10.90;43.53;102048.72;5054891;28;20534;-47
2021/03/19 09:34:12;;;;;;;12.90;2.90;;;;;;;10.81;44.04;102054.19;5053720;28;20467;-46
2021/03/19 09:37:32;;;;;;;6.17;2.23;;;;;;;10.81;43.46;102054.19;5054969;28;20498;-47
2021/03/19 09:40:40;;;;;;;6.13;2.53;;;;;;;10.87;43.53;102057.16;5057417;28;20486;-48
2021/03/19 09:43:08;;;;;;;5.30;1.67;;;;;;;10.92;43.71;102066.09;5053507;28;20542;-47
2021/03/19 09:45:46;;;;;;;4.20;1.37;;;;;;;10.12;45.71;102077.41;5052255;28;20474;-47
2021/03/19 09:48:26;;;;;;;4.40;2.20;;;;;;;11.02;43.98;102058.91;5053754;28;20480;-47
2021/03/19 09:50:58;;;;;;;4.70;1.60;;;;;;;10.72;44.21;102069.13;5052210;28;20896;-53
2021/03/19 09:53:31;;;;;;;4.27;1.67;;;;;;;10.21;45.00;102071.97;5056858;28;21137;-48
2021/03/19 09:55:59;;;;;;;3.93;1.43;;;;;;;10.44;44.49;102075.13;5066183;28;20442;-48
2021/03/19 09:58:33;;;;;;;3.63;1.47;;;;;;;10.82;44.13;102073.19;5073264;28;20487;-46
2021/03/19 10:01:05;;;;;;;6.70;2.37;;;;;;;11.10;43.36;102073.19;5060972;28;20469;-49
2021/03/19 10:03:41;;;;;;;6.43;1.50;;;;;;;10.85;43.95;102082.00;5060547;28;20835;-46
2021/03/19 10:06:19;;;;;;;3.60;1.50;;;;;;;11.45;42.99;102074.38;5061635;28;20463;-46
2021/03/19 10:08:49;;;;;;;3.60;1.57;;;;;;;11.19;43.36;102080.59;5057587;28;20497;-48
2021/03/19 10:11:18;;;;;;;3.73;1.57;;;;;;;11.44;43.46;102084.66;5058344;28;20448;-49
2021/03/19 10:13:45;;;;;;;7.20;2.20;;;;;;;11.50;42.96;102086.69;5073584;28;20737;-46
2021/03/19 10:16:20;;;;;;;3.60;1.50;;;;;;;11.30;42.67;102081.22;5077447;28;20514;-47
2021/03/19 10:18:49;;;;;;;10.77;1.93;;;;;;;11.72;41.74;102078.50;5076689;28;20486;-46
2021/03/19 10:21:19;;;;;;;3.43;1.40;;;;;;;11.76;41.15;102075.31;5077998;28;20440;-48
2021/03/19 10:23:48;;;;;;;3.90;1.40;;;;;;;11.82;40.61;102092.84;5076804;28;20482;-49
2021/03/19 10:26:24;;;;;;;5.80;1.60;;;;;;;11.10;42.09;102080.94;5077591;28;20434;-46
2021/03/19 10:28:53;;;;;;;3.60;1.40;;;;;;;11.46;41.79;102086.53;5076434;28;20544;-48
2021/03/19 10:31:21;;;;;;;3.53;1.27;;;;;;;11.38;41.57;102077.41;5057722;28;20546;-45
2021/03/19 10:33:55;;;;;;;3.50;1.10;;;;;;;10.86;41.73;102072.59;5056841;28;20786;-48
2021/03/19 10:36:34;;;;;;;4.40;1.40;;;;;;;11.66;41.78;102078.16;5064966;28;20467;-46
2021/03/19 10:39:04;;;;;;;3.80;1.23;;;;;;;11.55;42.86;102074.94;5076033;28;20467;-49
2021/03/19 10:41:39;;;;;;;9.40;1.70;;;;;;;10.96;43.18;102081.78;5077934;28;20836;-50
2021/03/19 10:44:09;;;;;;;16.63;1.30;;;;;;;11.31;42.70;102094.25;5076284;28;20479;-46
2021/03/19 10:46:40;;;;;;;6.10;1.73;;;;;;;11.32;43.80;102095.13;5077677;28;20539;-48
2021/03/19 10:49:14;;;;;;;4.50;1.70;;;;;;;11.27;42.52;102091.41;5076159;28;20453;-48
2021/03/19 10:51:43;;;;;;;3.70;1.17;;;;;;;11.57;41.54;102094.00;5077588;28;20462;-50
2021/03/19 10:54:15;;;;;;;5.17;1.90;;;;;;;11.82;41.00;102096.34;5070445;28;20919;-49
2021/03/19 10:56:47;;;;;;;4.80;1.93;;;;;;;11.47;41.12;102092.56;5057097;28;20471;-48
2021/03/19 10:59:20;;;;;;;4.40;1.50;;;;;;;11.92;40.05;102097.78;5054807;28;20446;-45
2021/03/19 11:01:49;;;;;;;5.20;2.07;;;;;;;11.90;40.09;102089.03;5057382;28;20484;-47
2021/03/19 11:04:32;;;;;;;6.33;1.97;;;;;;;11.75;40.96;102095.09;5061309;28;20453;-47
2021/03/19 11:07:00;;;;;;;4.73;1.50;;;;;;;11.67;40.14;102101.50;5076985;28;20550;-52
2021/03/19 11:09:28;;;;;;;4.57;1.40;;;;;;;11.84;39.53;102099.03;5075628;28;20445;-46
2021/03/19 11:11:58;;;;;;;6.57;1.63;;;;;;;10.87;40.23;102103.63;5074132;28;20466;-47
2021/03/19 11:14:27;;;;;;;5.10;1.77;;;;;;;11.10;40.28;102114.50;5075137;28;20471;-46
2021/03/19 11:16:57;;;;;;;8.63;2.20;;;;;;;11.48;40.13;102110.75;5073987;28;20539;-50
2021/03/19 11:19:27;;;;;;;8.37;1.97;;;;;;;11.63;40.21;102109.88;5075636;28;20449;-48
2021/03/19 11:22:03;;;;;;;5.40;2.03;;;;;;;11.51;40.40;102110.06;5076904;28;20849;-48
2021/03/19 11:24:31;;;;;;;5.57;2.10;;;;;;;12.14;39.71;102109.38;5055440;28;20521;-49
2021/03/19 11:27:13;;;;;;;7.30;1.60;;;;;;;12.17;38.64;102109.56;5056922;28;20773;-48
2021/03/19 11:29:42;;;;;;;8.27;1.97;;;;;;;11.96;38.59;102122.09;5055270;28;20454;-47
2021/03/19 11:32:28;;;;;;;4.93;1.90;;;;;;;11.45;39.88;102120.03;5056755;28;20466;-48
2021/03/19 11:34:57;;;;;;;19.50;2.00;;;;;;;11.23;39.59;102123.00;5071271;28;20460;-47
2021/03/19 11:37:37;;;;;;;5.73;1.77;;;;;;;11.65;38.49;102131.56;5076529;28;20516;-55
2021/03/19 11:40:09;;;;;;;3.77;1.33;;;;;;;10.59;39.83;102142.31;5075426;28;20573;-54
2021/03/19 11:42:41;;;;;;;2.77;1.20;;;;;;;11.04;39.31;102137.38;5076553;28;20466;-47
2021/03/19 11:45:10;;;;;;;3.47;1.63;;;;;;;10.97;38.71;102140.38;5075236;28;20892;-53
2021/03/19 11:47:39;;;;;;;7.00;1.73;;;;;;;11.49;38.99;102147.84;5076173;28;20433;-51
2021/03/19 11:50:26;;;;;;;10.40;2.13;;;;;;;12.40;38.09;102149.66;5075176;28;20756;-52
2021/03/19 11:52:55;;;;;;;9.70;1.90;;;;;;;12.21;37.73;102145.13;5076462;28;20730;-56
2021/03/19 11:55:25;;;;;;;6.73;2.10;;;;;;;11.73;38.99;102145.81;5074856;28;20482;-55
2021/03/19 11:57:53;;;;;;;5.40;1.67;;;;;;;11.04;40.08;102161.50;5076112;28;20477;-49
2021/03/19 12:00:23;;;;;;;5.57;1.97;;;;;;;11.44;39.07;102155.28;5074692;28;20559;-55